Aérodrome :
LOGIN :

S'inscrire | Disclaimer

   EN    FR    IT 

 










Légende :    VFR   VFR Marginal   IFR   IFR Intensif   IFR Très Intensif
Visi : 
Plafond : 
>= 8 km
>= 3000ft
5 à 8 km
1000 à 3000 ft
1500m à 5 km
500 à 1000 ft
800 à 1500m
200 à 500 ft
< 800m
< 200 ft
Symboles :   Orages  Brouillard  Fortes neiges  Fortes précipitations  Vent > 20 kt
SIGMETs :   Divers  Orages  Givrage  Turbulence  Onde Orograph.  Cendres Volcan.







- Altitude de l'aérodrome : 464 ft
- Code IATA : EVX
- Voir les cartes d'approche


LFOE - Evreux

DERNIER METAR :
  • 251200Z AUTO 28013KT 9999 FEW030 BKN037 BKN045 14/07 Q1017 TEMPO 30020G30KT 4000 -SHRA SCT015 SCT030TCU

METARs EXPIRÉS :
  • 251130Z AUTO 28010KT 9999 BKN027 BKN034 OVC066 14/07 Q1017 TEMPO 30020G30KT 4000 -SHRA SCT015 SCT030TCU
  • 251100Z AUTO 29011KT 250V320 //// R22///// // BKN021 13/07 Q1017
  • 251030Z AUTO 28009KT 250V310 //// R22///// // BKN022 BKN049 BKN068 13/09 Q1017
  • 251000Z AUTO 29008KT 260V330 //// R22///// // BKN019 BKN025 OVC068 12/08 Q1016
  • 250930Z AUTO 27009KT 250V310 9999 BKN020 OVC025 12/09 Q1016 BECMG 28015G25KT

TAF TAF LFOE
Valide du 25 à 09h jusqu'au 26 à 09h UTC


250800Z 2509/2609 27010KT 9999 OVC013
PROB30
TEMPO 2509/2510 26010G20KT 3000 -RADZ OVC005
BECMG 2510/2512 28015G25KT SCT025
PROB40
TEMPO 2512/2518 30020G30KT 4000 -SHRA SCT015 SCT030TCU
BECMG 2600/2603 27010KT
Pas de NOTAMs connus pour ce terrain.



MET'MAP, la Météo Aéronautique d'un coup d'oeil ! - Copyright ORBIFLY Décembre 2007 - Disclaimer

ORBIFLY MET'MAP TEAM :

Programmation & Développement : Alexandra Zaïnal
Conception & Développement : Baudouin d'Aumeries
Co-Programmation & Développement : Marc-Olivier Méhu
Soutien technique & logistique : Manuel Goepfert

Contact : metmap@orbifly.com




SOURCES & CREDITS :

   NOAA